Time;durP1;ratioP1;P1;durP2;ratioP2;P2;SDS_P1;SDS_P2;PMS_P1;PMS_P2;Temp;Humidity;BMP_temperature;BMP_pressure;BME280_temperature;BME280_humidity;BME280_pressure;Samples;Min_cycle;Max_cycle;Signal;HPM_P1;HPM_P2
2023/09/24 00:01:43;;;;;;;7.23;2.97;;;9.40;99.90;;;;;;5051963;28;20559;-67
2023/09/24 00:04:10;;;;;;;5.93;3.47;;;9.30;99.90;;;;;;5052898;28;20187;-68
2023/09/24 00:06:35;;;;;;;5.53;3.30;;;9.30;99.90;;;;;;5053050;28;20234;-68
2023/09/24 00:09:01;;;;;;;6.83;3.07;;;9.30;99.90;;;;;;5052179;28;20175;-68
2023/09/24 00:11:27;;;;;;;5.30;2.90;;;9.20;99.90;;;;;;5053207;28;20673;-68
2023/09/24 00:13:53;;;;;;;7.07;2.87;;;9.10;99.90;;;;;;5044536;28;20618;-68
2023/09/24 00:16:20;;;;;;;4.87;2.27;;;9.10;99.90;;;;;;5052944;28;20195;-67
2023/09/24 00:18:46;;;;;;;5.93;2.63;;;9.20;99.90;;;;;;5052033;28;20210;-68
2023/09/24 00:21:12;;;;;;;8.00;2.60;;;9.20;99.90;;;;;;5052732;28;20175;-68
2023/09/24 00:23:38;;;;;;;4.33;2.90;;;9.20;99.90;;;;;;5052900;28;20175;-67
2023/09/24 00:26:04;;;;;;;8.50;3.17;;;9.10;99.90;;;;;;5044551;28;20226;-67
2023/09/24 00:28:30;;;;;;;6.63;2.93;;;9.10;99.90;;;;;;5052771;28;20229;-68
2023/09/24 00:30:58;;;;;;;7.33;2.77;;;9.10;99.90;;;;;;5044333;28;20196;-67
2023/09/24 00:33:24;;;;;;;6.73;2.60;;;9.10;99.90;;;;;;5052791;28;20183;-68
2023/09/24 00:35:50;;;;;;;5.47;2.73;;;9.10;99.90;;;;;;5052226;28;20214;-68
2023/09/24 00:38:18;;;;;;;8.37;2.67;;;9.00;99.90;;;;;;5051808;28;20209;-67
2023/09/24 00:40:43;;;;;;;5.40;3.37;;;9.00;99.90;;;;;;5052468;28;20241;-68
2023/09/24 00:43:32;;;;;;;6.87;2.83;;;8.90;99.90;;;;;;5052233;28;20187;-67
2023/09/24 00:46:03;;;;;;;9.13;2.77;;;8.90;99.90;;;;;;5050865;28;20210;-67
2023/09/24 00:48:30;;;;;;;3.50;2.73;;;8.80;99.90;;;;;;5051768;28;20186;-66
2023/09/24 00:51:02;;;;;;;5.00;2.83;;;8.70;99.90;;;;;;5051761;28;20638;-66
2023/09/24 00:53:30;;;;;;;8.13;3.10;;;8.70;99.90;;;;;;5052624;28;20556;-67
2023/09/24 00:55:57;;;;;;;7.37;2.80;;;8.70;99.90;;;;;;5051941;28;20257;-67
2023/09/24 00:58:26;;;;;;;8.57;3.00;;;8.60;99.90;;;;;;5051413;28;20210;-67
2023/09/24 01:00:53;;;;;;;3.87;2.43;;;8.60;99.90;;;;;;5043696;28;20610;-68
2023/09/24 01:03:22;;;;;;;5.83;3.00;;;8.60;99.90;;;;;;5052240;28;20273;-68
2023/09/24 01:05:49;;;;;;;4.10;2.30;;;8.50;99.90;;;;;;5051733;28;20329;-68
2023/09/24 01:08:17;;;;;;;3.63;2.60;;;8.50;99.90;;;;;;5051459;28;20194;-68
2023/09/24 01:10:46;;;;;;;4.90;2.60;;;8.50;99.90;;;;;;5044136;28;20191;-67
2023/09/24 01:13:12;;;;;;;5.00;2.53;;;8.40;99.90;;;;;;5035820;28;20557;-67
2023/09/24 01:15:37;;;;;;;5.13;2.67;;;8.40;99.90;;;;;;5051810;28;20206;-68
2023/09/24 01:18:03;;;;;;;6.17;3.07;;;8.40;99.90;;;;;;5051071;28;20222;-68
2023/09/24 01:20:31;;;;;;;4.57;3.03;;;8.40;99.90;;;;;;5051791;28;20179;-68
2023/09/24 01:22:59;;;;;;;7.27;2.97;;;8.40;99.90;;;;;;5051597;28;20249;-67
2023/09/24 01:25:24;;;;;;;8.40;3.73;;;8.40;99.90;;;;;;5051752;28;20195;-68
2023/09/24 01:27:50;;;;;;;7.90;3.80;;;8.40;99.90;;;;;;5049972;28;20191;-68
2023/09/24 01:30:16;;;;;;;9.80;4.83;;;8.40;99.90;;;;;;5042806;28;20237;-68
2023/09/24 01:32:41;;;;;;;11.37;4.60;;;8.30;99.90;;;;;;5051503;28;20537;-68
2023/09/24 01:35:07;;;;;;;8.50;4.13;;;8.30;99.90;;;;;;5051178;28;20716;-68
2023/09/24 01:37:33;;;;;;;5.90;4.03;;;8.30;99.90;;;;;;5051441;28;20265;-67
2023/09/24 01:40:14;;;;;;;6.70;4.17;;;8.30;99.90;;;;;;5047818;28;20180;-67
2023/09/24 01:42:40;;;;;;;5.53;3.30;;;8.30;99.90;;;;;;5047041;28;20187;-67
2023/09/24 01:45:08;;;;;;;6.93;3.70;;;8.30;99.90;;;;;;5051373;28;20868;-68
2023/09/24 01:47:34;;;;;;;6.03;3.57;;;8.30;99.90;;;;;;5051337;28;20193;-68
2023/09/24 01:50:00;;;;;;;6.87;3.33;;;8.40;99.90;;;;;;5050222;28;20179;-67
2023/09/24 01:52:25;;;;;;;6.30;3.20;;;8.50;99.90;;;;;;5051264;28;20191;-67
2023/09/24 01:54:51;;;;;;;4.17;2.60;;;8.50;99.90;;;;;;5042631;28;20321;-67
2023/09/24 01:57:17;;;;;;;5.53;3.00;;;8.50;99.90;;;;;;5050451;28;20257;-68
2023/09/24 01:59:42;;;;;;;9.83;2.80;;;8.50;99.90;;;;;;5050415;28;20206;-68
2023/09/24 02:02:09;;;;;;;6.73;3.40;;;8.50;99.90;;;;;;5050816;28;20179;-68
2023/09/24 02:04:37;;;;;;;6.80;3.47;;;8.60;99.90;;;;;;5042660;28;20186;-68
2023/09/24 02:07:04;;;;;;;8.03;3.43;;;8.60;99.90;;;;;;5050764;28;20218;-67
2023/09/24 02:09:29;;;;;;;7.77;4.10;;;8.70;99.90;;;;;;5049089;28;20645;-68
2023/09/24 02:11:56;;;;;;;11.90;4.57;;;8.80;99.90;;;;;;5050791;28;20226;-68
2023/09/24 02:14:21;;;;;;;13.80;4.00;;;8.70;99.90;;;;;;5050775;28;20274;-68
2023/09/24 02:16:47;;;;;;;13.23;4.60;;;8.80;99.90;;;;;;5050332;28;20341;-69
2023/09/24 02:19:14;;;;;;;6.33;3.87;;;8.80;99.90;;;;;;5049826;28;20230;-68
2023/09/24 02:21:40;;;;;;;22.43;4.00;;;8.90;99.90;;;;;;5042552;28;20582;-68
2023/09/24 02:24:07;;;;;;;18.73;4.00;;;8.90;99.90;;;;;;5050389;28;20553;-68
2023/09/24 02:26:33;;;;;;;4.17;3.20;;;8.90;99.90;;;;;;5042239;28;20281;-68
2023/09/24 02:28:59;;;;;;;10.67;3.40;;;8.90;99.90;;;;;;5049801;28;20301;-68
2023/09/24 02:31:26;;;;;;;4.37;3.10;;;8.90;99.90;;;;;;5050480;28;20270;-68
2023/09/24 02:33:52;;;;;;;11.53;3.50;;;9.00;99.90;;;;;;5050329;28;20187;-68
2023/09/24 02:36:17;;;;;;;7.67;3.40;;;8.80;99.90;;;;;;5050222;28;20207;-68
2023/09/24 02:38:44;;;;;;;7.67;3.70;;;8.80;99.90;;;;;;5048669;28;20237;-67
2023/09/24 02:41:11;;;;;;;7.10;3.77;;;8.90;99.90;;;;;;5050139;28;20266;-68
2023/09/24 02:43:37;;;;;;;6.50;3.73;;;8.90;99.90;;;;;;5050493;28;20201;-68
2023/09/24 02:46:05;;;;;;;8.20;3.90;;;8.90;99.90;;;;;;5065559;28;20558;-68
2023/09/24 02:48:32;;;;;;;7.87;3.77;;;8.90;99.90;;;;;;5049643;28;20190;-67
2023/09/24 02:51:08;;;;;;;9.17;3.90;;;8.90;99.90;;;;;;5050053;28;20187;-67
2023/09/24 02:53:35;;;;;;;7.17;3.90;;;8.90;99.90;;;;;;5050252;28;20183;-67
2023/09/24 02:56:03;;;;;;;6.20;3.43;;;8.90;99.90;;;;;;5050134;28;20210;-68
2023/09/24 02:58:32;;;;;;;6.27;3.73;;;8.80;99.90;;;;;;5049274;28;20202;-68
2023/09/24 03:00:58;;;;;;;9.93;3.30;;;8.70;99.90;;;;;;5050047;28;20278;-68
2023/09/24 03:03:23;;;;;;;4.40;3.00;;;8.60;99.90;;;;;;5045250;28;20267;-68
2023/09/24 03:05:50;;;;;;;4.77;2.73;;;8.50;99.90;;;;;;5046799;28;20203;-68
2023/09/24 03:08:16;;;;;;;4.57;2.40;;;8.50;99.90;;;;;;5049726;28;20244;-68
2023/09/24 03:10:42;;;;;;;3.87;2.50;;;8.50;99.90;;;;;;5069733;28;20191;-68
2023/09/24 03:13:07;;;;;;;6.00;2.60;;;8.50;99.90;;;;;;5054328;28;20195;-68
2023/09/24 03:15:34;;;;;;;9.30;2.90;;;8.50;99.90;;;;;;5052811;28;20469;-68
2023/09/24 03:17:59;;;;;;;6.03;3.40;;;8.50;99.90;;;;;;5053135;28;20218;-68
2023/09/24 03:20:25;;;;;;;6.23;3.30;;;8.60;99.90;;;;;;5048700;28;20187;-68
2023/09/24 03:22:52;;;;;;;4.73;2.90;;;8.50;99.90;;;;;;5043037;28;20183;-68
2023/09/24 03:25:19;;;;;;;6.80;3.07;;;8.50;99.90;;;;;;5053964;28;20236;-68
2023/09/24 03:27:46;;;;;;;9.40;3.30;;;8.50;99.90;;;;;;5053803;28;20199;-67
2023/09/24 03:30:14;;;;;;;5.77;3.13;;;8.40;99.90;;;;;;5053187;28;20183;-68
2023/09/24 03:32:43;;;;;;;5.63;3.03;;;8.50;99.90;;;;;;5045620;28;20185;-68
2023/09/24 03:35:10;;;;;;;10.30;4.03;;;8.50;99.90;;;;;;5052120;28;20225;-68
2023/09/24 03:37:41;;;;;;;12.20;3.67;;;8.50;99.90;;;;;;5053576;28;20229;-67
2023/09/24 03:40:17;;;;;;;10.00;3.43;;;8.50;99.90;;;;;;5052417;28;20593;-68
2023/09/24 03:42:44;;;;;;;8.03;4.37;;;8.50;99.90;;;;;;5053757;28;20181;-68
2023/09/24 03:45:14;;;;;;;8.13;2.90;;;8.50;99.90;;;;;;5053488;28;20175;-67
2023/09/24 03:47:40;;;;;;;6.57;2.60;;;8.50;99.90;;;;;;5053522;28;20746;-68
2023/09/24 03:50:16;;;;;;;7.57;3.00;;;8.50;99.90;;;;;;5052793;28;20178;-67
2023/09/24 03:52:44;;;;;;;6.93;3.07;;;8.40;99.90;;;;;;5053533;28;20254;-68
2023/09/24 03:55:09;;;;;;;4.00;2.77;;;8.40;99.90;;;;;;5053273;28;20225;-67
2023/09/24 03:57:36;;;;;;;6.33;2.83;;;8.30;99.90;;;;;;5052272;28;20213;-68
2023/09/24 04:00:06;;;;;;;6.30;2.83;;;8.30;99.90;;;;;;5052492;28;20182;-67
2023/09/24 04:02:32;;;;;;;6.43;3.30;;;8.20;99.90;;;;;;5053306;28;20660;-68
2023/09/24 04:04:57;;;;;;;6.77;2.97;;;8.30;99.90;;;;;;5052984;28;20262;-67
2023/09/24 04:07:23;;;;;;;8.63;3.97;;;8.30;99.90;;;;;;5068644;28;20256;-68
2023/09/24 04:09:49;;;;;;;6.30;3.03;;;8.40;99.90;;;;;;5052289;28;20179;-68
2023/09/24 04:12:14;;;;;;;9.80;3.20;;;8.40;99.90;;;;;;5053235;28;20658;-68
2023/09/24 04:14:40;;;;;;;11.93;3.43;;;8.40;99.90;;;;;;5052963;28;20226;-67
2023/09/24 04:17:06;;;;;;;8.07;3.43;;;8.30;99.90;;;;;;5052784;28;20230;-68
2023/09/24 04:19:32;;;;;;;9.90;3.83;;;8.30;99.90;;;;;;5051759;28;20570;-67
2023/09/24 04:21:58;;;;;;;7.17;4.00;;;8.30;99.90;;;;;;5052642;28;20270;-68
2023/09/24 04:24:24;;;;;;;7.23;3.90;;;8.30;99.90;;;;;;5052807;28;20270;-68
2023/09/24 04:26:54;;;;;;;17.17;4.23;;;8.40;99.90;;;;;;5044201;28;20199;-68
2023/09/24 04:29:20;;;;;;;8.47;3.80;;;8.50;99.90;;;;;;5039311;28;20683;-68
2023/09/24 04:31:46;;;;;;;5.73;3.53;;;8.50;99.90;;;;;;5040545;28;20187;-67
2023/09/24 04:34:13;;;;;;;9.03;4.00;;;8.50;99.90;;;;;;5044876;28;20190;-68
2023/09/24 04:36:42;;;;;;;8.00;3.80;;;8.60;99.90;;;;;;5045556;28;20210;-67
2023/09/24 04:39:11;;;;;;;6.57;4.03;;;8.60;99.90;;;;;;5050932;28;20183;-67
2023/09/24 04:41:42;;;;;;;14.00;4.20;;;8.50;99.90;;;;;;5052491;28;20179;-67
2023/09/24 04:44:08;;;;;;;13.43;4.17;;;8.50;99.90;;;;;;5052297;28;20198;-68
2023/09/24 04:46:35;;;;;;;13.20;4.33;;;8.50;99.90;;;;;;5052335;28;20207;-67
2023/09/24 04:49:02;;;;;;;7.97;4.20;;;8.40;99.90;;;;;;5051570;28;20278;-67
2023/09/24 04:51:28;;;;;;;11.17;3.93;;;8.50;99.90;;;;;;5043971;28;20202;-68
2023/09/24 04:53:54;;;;;;;12.23;4.50;;;8.50;99.90;;;;;;5052124;28;20577;-68
2023/09/24 04:56:19;;;;;;;7.67;3.80;;;8.50;99.90;;;;;;5043900;28;20262;-68
2023/09/24 04:58:45;;;;;;;9.07;3.47;;;8.40;99.90;;;;;;5051579;28;20249;-67
2023/09/24 05:01:10;;;;;;;9.73;3.80;;;8.30;99.90;;;;;;5052008;28;20187;-68
2023/09/24 05:03:37;;;;;;;7.27;3.87;;;8.40;99.90;;;;;;5052125;28;20183;-68
2023/09/24 05:06:03;;;;;;;6.33;3.90;;;8.40;99.90;;;;;;5051694;28;20296;-68
2023/09/24 05:08:29;;;;;;;11.87;3.80;;;8.40;99.90;;;;;;5051282;28;20207;-67
2023/09/24 05:10:55;;;;;;;5.87;3.67;;;8.40;99.90;;;;;;5051762;28;20179;-68
2023/09/24 05:13:20;;;;;;;8.03;3.60;;;8.30;99.90;;;;;;5051937;28;20207;-68
2023/09/24 05:16:00;;;;;;;7.10;4.13;;;8.30;99.90;;;;;;5051848;28;20289;-68
2023/09/24 05:18:26;;;;;;;7.27;3.33;;;8.30;99.90;;;;;;5051111;28;20240;-68
2023/09/24 05:20:52;;;;;;;9.30;3.33;;;8.40;99.90;;;;;;5051470;28;20613;-68
2023/09/24 05:23:17;;;;;;;6.47;3.60;;;8.30;99.90;;;;;;5051710;28;20215;-68
2023/09/24 05:25:43;;;;;;;7.77;4.00;;;8.20;99.90;;;;;;5051614;28;20214;-68
2023/09/24 05:28:09;;;;;;;7.80;3.87;;;8.30;99.90;;;;;;5050382;28;20338;-68
2023/09/24 05:30:35;;;;;;;7.07;3.83;;;8.20;99.90;;;;;;5065873;28;20187;-68
2023/09/24 05:33:01;;;;;;;14.43;4.00;;;8.30;99.90;;;;;;5048132;28;20617;-68
2023/09/24 05:35:27;;;;;;;10.57;3.40;;;8.30;99.90;;;;;;5038990;28;20261;-68
2023/09/24 05:37:53;;;;;;;18.80;3.50;;;8.30;99.90;;;;;;5030525;28;20192;-68
2023/09/24 05:40:18;;;;;;;12.17;3.77;;;8.20;99.90;;;;;;5030682;28;20199;-68
2023/09/24 05:42:44;;;;;;;8.23;3.33;;;8.20;99.90;;;;;;5030846;28;20199;-68
2023/09/24 05:45:10;;;;;;;10.20;3.73;;;8.10;99.90;;;;;;5039002;28;20351;-68
2023/09/24 05:47:36;;;;;;;14.47;3.33;;;8.10;99.90;;;;;;5025906;28;20262;-68
2023/09/24 05:50:05;;;;;;;13.53;4.43;;;8.20;99.90;;;;;;5027775;28;20263;-68
2023/09/24 05:52:31;;;;;;;12.03;3.07;;;8.10;99.90;;;;;;5030565;28;20215;-68
2023/09/24 05:54:57;;;;;;;11.57;3.10;;;8.10;99.90;;;;;;5030543;28;20187;-68
2023/09/24 05:57:27;;;;;;;9.90;3.17;;;8.10;99.90;;;;;;5030432;28;20199;-68
2023/09/24 05:59:54;;;;;;;11.83;3.10;;;8.20;99.90;;;;;;5029571;28;20179;-68
2023/09/24 06:02:26;;;;;;;8.70;3.47;;;8.20;99.90;;;;;;5030234;28;20560;-68
2023/09/24 06:04:54;;;;;;;8.43;3.10;;;8.20;99.90;;;;;;5038377;28;20186;-68
2023/09/24 06:07:19;;;;;;;7.37;3.47;;;8.20;99.90;;;;;;5030272;28;20208;-68
2023/09/24 06:09:46;;;;;;;10.67;3.13;;;8.20;99.90;;;;;;5029642;28;20188;-68
2023/09/24 06:12:11;;;;;;;5.93;2.90;;;8.20;99.90;;;;;;5046944;28;20184;-68
2023/09/24 06:14:37;;;;;;;22.97;3.30;;;8.20;99.90;;;;;;5044962;28;20237;-68
2023/09/24 06:17:03;;;;;;;8.60;2.70;;;8.20;99.90;;;;;;5049747;28;20214;-68
2023/09/24 06:19:30;;;;;;;6.27;2.63;;;8.20;99.90;;;;;;5043796;28;20591;-69
2023/09/24 06:21:55;;;;;;;9.53;2.80;;;8.20;99.90;;;;;;5030005;28;20274;-68
2023/09/24 06:24:22;;;;;;;4.80;2.40;;;8.20;99.90;;;;;;5030097;28;20263;-68
2023/09/24 06:26:47;;;;;;;7.70;2.87;;;8.30;99.90;;;;;;5029899;28;20215;-68
2023/09/24 06:29:14;;;;;;;6.10;2.90;;;8.30;99.90;;;;;;5029284;28;20643;-67
2023/09/24 06:31:39;;;;;;;5.23;3.13;;;8.30;99.90;;;;;;5028664;28;20606;-68
2023/09/24 06:34:05;;;;;;;8.67;2.80;;;8.40;99.90;;;;;;5029691;28;20187;-68
2023/09/24 06:36:31;;;;;;;6.90;2.97;;;8.40;99.90;;;;;;5029746;28;20199;-68
2023/09/24 06:38:57;;;;;;;4.47;2.90;;;8.40;99.90;;;;;;5029192;28;20191;-68
2023/09/24 06:41:22;;;;;;;5.20;2.70;;;8.40;99.90;;;;;;5029862;28;20229;-68
2023/09/24 06:43:48;;;;;;;3.97;2.40;;;8.40;99.90;;;;;;5029669;28;20207;-68
2023/09/24 06:46:14;;;;;;;4.63;2.97;;;8.40;99.90;;;;;;5029734;28;20222;-67
2023/09/24 06:48:39;;;;;;;4.60;2.70;;;8.40;99.90;;;;;;5029355;28;20626;-68
2023/09/24 06:51:07;;;;;;;5.10;2.90;;;8.60;99.90;;;;;;5038460;28;20199;-67
2023/09/24 06:53:32;;;;;;;4.00;2.47;;;8.70;99.90;;;;;;5035690;28;20176;-68
2023/09/24 06:55:58;;;;;;;4.73;2.50;;;8.90;99.90;;;;;;5029569;28;20304;-68
2023/09/24 06:58:24;;;;;;;7.13;2.80;;;9.00;99.90;;;;;;5037320;28;20191;-68
2023/09/24 07:00:49;;;;;;;8.73;3.83;;;9.10;99.90;;;;;;5030059;28;20662;-68
2023/09/24 07:03:15;;;;;;;4.13;2.83;;;9.10;99.90;;;;;;5029865;28;20589;-67
2023/09/24 07:05:41;;;;;;;6.33;3.63;;;9.30;99.90;;;;;;5036275;28;20289;-68
2023/09/24 07:08:06;;;;;;;10.47;5.00;;;9.40;99.90;;;;;;5030064;28;20697;-68
2023/09/24 07:10:32;;;;;;;4.93;2.80;;;9.40;99.90;;;;;;5035191;28;20195;-68
2023/09/24 07:12:57;;;;;;;4.53;2.80;;;9.50;99.90;;;;;;5039887;28;20203;-67
2023/09/24 07:15:23;;;;;;;10.03;2.90;;;9.70;99.90;;;;;;5037574;28;20202;-68
2023/09/24 07:17:48;;;;;;;7.97;2.50;;;9.70;99.90;;;;;;5037590;28;20238;-68
2023/09/24 07:20:14;;;;;;;4.53;2.60;;;9.70;99.90;;;;;;5028840;28;20199;-68
2023/09/24 07:22:40;;;;;;;3.83;2.60;;;9.80;99.90;;;;;;5037715;28;20597;-68
2023/09/24 07:25:06;;;;;;;4.07;2.83;;;9.80;99.90;;;;;;5031441;28;20199;-68
2023/09/24 07:27:32;;;;;;;7.63;2.57;;;10.00;99.90;;;;;;5041008;28;20570;-67
2023/09/24 07:29:57;;;;;;;3.97;2.50;;;10.10;99.90;;;;;;5031359;28;20648;-68
2023/09/24 07:32:23;;;;;;;3.13;2.23;;;10.40;99.90;;;;;;5029244;28;20703;-68
2023/09/24 07:34:48;;;;;;;6.17;2.73;;;10.40;99.90;;;;;;5028674;28;20199;-68
2023/09/24 07:37:14;;;;;;;3.33;2.30;;;10.50;99.90;;;;;;5030872;28;20200;-68
2023/09/24 07:39:40;;;;;;;5.53;3.00;;;10.70;99.90;;;;;;5028613;28;20415;-69
2023/09/24 07:42:07;;;;;;;4.40;2.40;;;10.80;99.90;;;;;;5018442;28;20234;-68
2023/09/24 07:44:32;;;;;;;6.83;2.50;;;11.00;99.90;;;;;;5018077;28;20218;-68
2023/09/24 07:46:58;;;;;;;3.47;2.27;;;11.00;99.90;;;;;;5024022;28;20590;-68
2023/09/24 07:49:24;;;;;;;4.90;2.77;;;11.10;99.90;;;;;;5023512;28;20195;-68
2023/09/24 07:51:49;;;;;;;3.23;2.30;;;11.20;99.90;;;;;;5024345;28;20240;-68
2023/09/24 07:54:17;;;;;;;7.77;2.60;;;11.20;99.90;;;;;;5023982;28;20183;-68
2023/09/24 07:56:43;;;;;;;4.10;2.17;;;11.30;99.90;;;;;;5027505;28;20282;-68
2023/09/24 07:59:12;;;;;;;4.07;2.40;;;11.60;99.90;;;;;;5034830;28;20344;-68
2023/09/24 08:01:38;;;;;;;3.73;2.30;;;12.10;99.90;;;;;;5039618;28;20278;-68
2023/09/24 08:04:03;;;;;;;3.70;2.00;;;12.40;99.90;;;;;;5032505;28;20207;-68
2023/09/24 08:06:29;;;;;;;2.80;2.20;;;12.80;99.90;;;;;;5032485;28;20299;-69
2023/09/24 08:08:56;;;;;;;2.93;2.10;;;13.00;99.90;;;;;;5048507;28;20243;-68
2023/09/24 08:11:22;;;;;;;3.43;2.10;;;13.10;99.90;;;;;;5052525;28;20651;-68
2023/09/24 08:13:48;;;;;;;5.20;1.80;;;13.20;99.90;;;;;;5044562;28;20184;-68
2023/09/24 08:16:13;;;;;;;2.53;1.93;;;13.30;99.90;;;;;;5032718;28;20222;-68
2023/09/24 08:18:40;;;;;;;2.73;2.20;;;13.70;99.90;;;;;;5039812;28;20211;-68
2023/09/24 08:21:06;;;;;;;5.00;2.17;;;13.90;99.90;;;;;;5034193;28;20214;-68
2023/09/24 08:23:32;;;;;;;3.10;2.30;;;14.00;99.90;;;;;;5046749;28;20187;-69
2023/09/24 08:26:01;;;;;;;4.67;3.37;;;14.30;99.90;;;;;;5040665;28;20217;-68
2023/09/24 08:28:27;;;;;;;6.67;2.97;;;14.30;99.90;;;;;;5031659;28;20573;-69
2023/09/24 08:30:53;;;;;;;4.10;3.00;;;14.80;99.90;;;;;;5040329;28;20242;-68
2023/09/24 08:33:18;;;;;;;3.40;2.10;;;15.50;99.90;;;;;;5036131;28;20534;-69
2023/09/24 08:35:44;;;;;;;2.87;1.97;;;15.70;99.90;;;;;;5036646;28;20646;-69
2023/09/24 08:38:10;;;;;;;2.70;2.10;;;16.20;99.90;;;;;;5034004;28;20191;-68
2023/09/24 08:40:35;;;;;;;3.50;2.30;;;16.80;99.90;;;;;;5052412;28;20235;-69
2023/09/24 08:43:08;;;;;;;2.33;1.90;;;17.10;99.90;;;;;;5032342;28;20550;-69
2023/09/24 08:45:34;;;;;;;2.17;1.70;;;17.50;99.90;;;;;;5031965;28;20257;-67
2023/09/24 08:48:01;;;;;;;2.37;1.70;;;18.10;99.90;;;;;;5040428;28;20210;-68
2023/09/24 08:50:27;;;;;;;2.50;1.50;;;18.50;99.90;;;;;;5038600;28;20287;-68
2023/09/24 08:52:54;;;;;;;3.17;1.40;;;19.20;99.90;;;;;;5027289;28;20663;-67
2023/09/24 08:55:20;;;;;;;3.03;1.30;;;19.60;99.90;;;;;;5031596;28;20194;-68
2023/09/24 08:57:46;;;;;;;2.30;1.43;;;20.20;99.90;;;;;;5047272;28;20179;-66
2023/09/24 09:00:14;;;;;;;3.17;1.37;;;20.10;99.90;;;;;;5042847;28;20190;-67
2023/09/24 09:02:41;;;;;;;2.33;1.60;;;20.40;99.90;;;;;;5043531;28;20553;-68
2023/09/24 09:05:12;;;;;;;1.83;1.50;;;20.60;99.90;;;;;;5051244;28;20183;-68
2023/09/24 09:07:56;;;;;;;1.37;1.17;;;20.50;99.90;;;;;;5040769;28;20741;-67
2023/09/24 09:10:27;;;;;;;1.93;1.33;;;21.10;99.90;;;;;;5047482;28;20184;-70
2023/09/24 09:13:04;;;;;;;6.23;2.00;;;21.30;99.90;;;;;;5039879;28;20210;-70
2023/09/24 09:15:30;;;;;;;2.77;1.80;;;21.40;99.90;;;;;;5043192;28;20214;-69
2023/09/24 09:17:55;;;;;;;5.40;2.20;;;21.40;99.90;;;;;;5041977;28;20575;-69
2023/09/24 09:20:44;;;;;;;5.77;2.30;;;21.60;99.90;;;;;;5047198;28;20188;-70
2023/09/24 09:23:13;;;;;;;5.80;2.30;;;21.40;99.90;;;;;;5031171;28;20191;-70
2023/09/24 09:25:52;;;;;;;7.20;2.17;;;21.60;99.90;;;;;;5031175;28;20770;-70
2023/09/24 09:28:38;;;;;;;8.97;2.43;;;21.60;99.90;;;;;;5030846;28;20239;-70
2023/09/24 09:31:08;;;;;;;7.27;2.50;;;21.80;99.90;;;;;;5047082;28;20270;-70
2023/09/24 09:33:41;;;;;;;4.43;2.10;;;22.20;99.90;;;;;;5037189;28;20298;-71
2023/09/24 09:36:19;;;;;;;5.47;2.42;;;22.60;99.90;;;;;;5031288;28;20410;-69
2023/09/24 09:38:45;;;;;;;4.17;2.27;;;23.00;99.90;;;;;;5045923;28;20246;-67
2023/09/24 09:41:11;;;;;;;9.93;2.60;;;23.50;99.90;;;;;;5034284;28;20286;-71
2023/09/24 09:43:38;;;;;;;14.23;3.70;;;24.00;99.90;;;;;;5036934;28;20178;-70
2023/09/24 09:46:07;;;;;;;4.83;2.23;;;24.60;99.90;;;;;;5048517;28;20213;-73
2023/09/24 09:48:33;;;;;;;5.90;3.00;;;24.70;99.90;;;;;;5041800;28;20224;-70
2023/09/24 09:51:10;;;;;;;8.40;2.73;;;24.80;99.90;;;;;;5050520;28;20311;-70
2023/09/24 09:53:39;;;;;;;10.17;2.40;;;24.70;99.90;;;;;;5050625;28;20257;-72
2023/09/24 09:56:07;;;;;;;6.50;1.90;;;25.00;99.90;;;;;;5042129;28;20226;-70
2023/09/24 09:58:41;;;;;;;5.00;1.80;;;24.60;99.90;;;;;;5036063;28;20183;-70
2023/09/24 10:01:07;;;;;;;6.47;2.63;;;24.70;99.90;;;;;;5035840;28;20180;-70
2023/09/24 10:03:36;;;;;;;6.37;1.77;;;24.50;99.90;;;;;;5030562;28;20566;-70
2023/09/24 10:06:03;;;;;;;6.63;2.03;;;24.70;99.90;;;;;;5030017;28;20215;-70
2023/09/24 10:08:48;;;;;;;4.07;1.83;;;24.70;99.90;;;;;;5029769;28;20670;-70
2023/09/24 10:11:32;;;;;;;3.17;1.60;;;24.90;99.90;;;;;;5038500;28;20547;-70
2023/09/24 10:13:58;;;;;;;5.20;1.70;;;25.20;99.90;;;;;;5038354;28;20186;-70
2023/09/24 10:16:32;;;;;;;6.73;4.10;;;24.90;99.90;;;;;;5042751;28;20195;-69
2023/09/24 10:19:09;;;;;;;7.10;1.97;;;24.80;99.90;;;;;;5048383;28;20217;-70
2023/09/24 10:21:40;;;;;;;7.30;1.90;;;24.90;99.90;;;;;;5044122;28;20236;-69
2023/09/24 10:24:12;;;;;;;5.20;1.67;;;25.20;99.90;;;;;;5040005;28;20179;-70
2023/09/24 10:27:06;;;;;;;2.87;1.37;;;25.50;99.90;;;;;;5044620;28;20205;-70
2023/09/24 10:29:49;;;;;;;3.97;1.47;;;25.90;99.90;;;;;;5023068;28;20163;-70
2023/09/24 10:32:22;;;;;;;4.47;1.10;;;25.80;99.90;;;;;;5038113;28;20171;-69
2023/09/24 10:34:51;;;;;;;5.37;1.50;;;25.30;99.90;;;;;;5038290;28;20180;-69
2023/09/24 10:37:18;;;;;;;4.60;1.10;;;25.40;99.90;;;;;;5029053;28;20608;-69
2023/09/24 10:40:05;;;;;;;5.87;2.03;;;24.60;99.90;;;;;;5038357;28;20670;-68
2023/09/24 10:42:37;;;;;;;5.17;2.20;;;24.30;99.90;;;;;;5037217;28;20179;-69
2023/09/24 10:45:06;;;;;;;10.30;1.70;;;23.90;99.90;;;;;;5039907;28;20418;-70
2023/09/24 10:47:50;;;;;;;4.37;1.10;;;24.20;99.90;;;;;;5035114;28;20201;-67
2023/09/24 10:50:17;;;;;;;3.77;1.30;;;24.30;99.90;;;;;;5040417;28;20658;-68
2023/09/24 10:52:48;;;;;;;3.60;1.23;;;24.30;99.90;;;;;;5042733;28;20274;-67
2023/09/24 10:55:15;;;;;;;4.30;1.77;;;24.00;99.90;;;;;;5037871;28;20183;-67
2023/09/24 10:57:52;;;;;;;2.03;1.10;;;23.70;99.90;;;;;;5037761;28;20183;-68
2023/09/24 11:00:20;;;;;;;6.37;1.47;;;23.30;99.90;;;;;;5037357;28;20172;-67
2023/09/24 11:02:53;;;;;;;4.83;1.50;;;22.90;99.90;;;;;;5038047;28;20180;-67
2023/09/24 11:05:18;;;;;;;3.80;1.60;;;22.70;99.90;;;;;;5032957;28;20183;-67
2023/09/24 11:07:44;;;;;;;6.00;1.20;;;22.70;99.90;;;;;;5042508;28;20221;-68
2023/09/24 11:10:10;;;;;;;3.43;1.00;;;22.70;99.90;;;;;;5039508;28;20191;-68
2023/09/24 11:12:35;;;;;;;7.87;1.37;;;22.80;99.90;;;;;;5043606;28;20190;-68
2023/09/24 11:15:01;;;;;;;3.40;1.20;;;22.70;99.90;;;;;;5029232;28;20645;-68
2023/09/24 11:17:27;;;;;;;4.97;1.47;;;22.70;99.90;;;;;;5033956;28;20233;-67
2023/09/24 11:19:52;;;;;;;6.27;1.50;;;22.50;99.90;;;;;;5032614;28;20308;-67
2023/09/24 11:22:23;;;;;;;3.30;1.30;;;22.50;99.90;;;;;;5037536;28;20196;-69
2023/09/24 11:25:11;;;;;;;5.00;1.10;;;22.50;99.90;;;;;;5037715;28;20668;-67
2023/09/24 11:27:49;;;;;;;8.90;1.27;;;22.50;99.90;;;;;;5023804;28;20212;-67
2023/09/24 11:30:16;;;;;;;3.17;1.30;;;22.60;99.90;;;;;;5038730;28;20665;-68
2023/09/24 11:32:46;;;;;;;4.03;1.40;;;22.80;99.90;;;;;;5036981;28;20601;-68
2023/09/24 11:35:16;;;;;;;3.63;1.20;;;23.00;99.90;;;;;;5034696;28;20649;-67
2023/09/24 11:37:59;;;;;;;2.47;1.03;;;22.90;99.90;;;;;;5038176;28;20196;-67
2023/09/24 11:40:28;;;;;;;4.80;1.10;;;23.00;99.90;;;;;;5025830;28;20180;-68
2023/09/24 11:42:56;;;;;;;3.60;1.30;;;22.70;99.90;;;;;;5049427;28;20192;-68
2023/09/24 11:45:55;;;;;;;6.93;1.30;;;22.70;99.90;;;;;;5044817;28;20187;-68
2023/09/24 11:48:28;;;;;;;3.43;1.43;;;22.40;99.90;;;;;;5026566;28;20296;-68
2023/09/24 11:50:55;;;;;;;5.27;1.10;;;22.40;99.90;;;;;;5052633;28;20272;-67
2023/09/24 11:53:23;;;;;;;3.17;1.10;;;22.10;99.90;;;;;;5036993;28;20271;-68
2023/09/24 11:55:49;;;;;;;4.73;1.20;;;22.20;99.90;;;;;;5052740;28;20261;-68
2023/09/24 11:58:17;;;;;;;5.90;1.20;;;22.20;99.90;;;;;;5051711;28;20181;-68
2023/09/24 12:00:44;;;;;;;6.23;2.00;;;22.30;99.90;;;;;;5052741;28;20256;-67
2023/09/24 12:03:11;;;;;;;2.90;1.57;;;22.70;99.90;;;;;;5052308;28;20188;-68
2023/09/24 12:05:36;;;;;;;3.63;1.30;;;22.60;99.90;;;;;;5052343;28;20195;-68
2023/09/24 12:08:04;;;;;;;2.73;1.30;;;22.70;99.90;;;;;;5043327;28;20670;-68
2023/09/24 12:10:32;;;;;;;3.97;1.27;;;22.80;99.90;;;;;;5047702;28;20181;-68
2023/09/24 12:13:04;;;;;;;3.17;1.10;;;22.80;99.90;;;;;;5047448;28;20683;-69
2023/09/24 12:15:31;;;;;;;5.70;1.40;;;22.80;99.90;;;;;;5045649;28;20218;-68
2023/09/24 12:17:58;;;;;;;5.13;1.43;;;22.60;99.90;;;;;;5051190;28;20670;-68
2023/09/24 12:20:25;;;;;;;5.00;1.23;;;22.50;99.90;;;;;;5052295;28;20636;-69
2023/09/24 12:22:51;;;;;;;3.93;0.93;;;22.60;99.90;;;;;;5044547;28;20250;-69
2023/09/24 12:25:16;;;;;;;3.90;1.17;;;22.60;99.90;;;;;;5048513;28;20684;-69
2023/09/24 12:27:42;;;;;;;2.17;0.90;;;22.90;99.90;;;;;;5046904;28;20205;-69
2023/09/24 12:30:12;;;;;;;3.10;0.80;;;23.00;99.90;;;;;;5058602;28;20184;-70
2023/09/24 12:32:41;;;;;;;3.23;1.17;;;22.80;99.90;;;;;;5046169;28;20668;-68
2023/09/24 12:35:09;;;;;;;2.17;1.07;;;23.00;99.90;;;;;;5031965;28;20225;-69
2023/09/24 12:37:38;;;;;;;7.27;1.20;;;22.80;99.90;;;;;;5040268;28;20193;-69
2023/09/24 12:40:07;;;;;;;4.23;1.20;;;22.30;99.90;;;;;;5031445;28;20188;-69
2023/09/24 12:42:39;;;;;;;1.47;0.90;;;22.10;99.90;;;;;;5037406;28;20211;-69
2023/09/24 12:45:07;;;;;;;4.87;1.17;;;22.10;99.90;;;;;;5050371;28;20238;-69
2023/09/24 12:47:34;;;;;;;2.97;1.00;;;22.50;99.90;;;;;;5031819;28;20745;-69
2023/09/24 12:50:01;;;;;;;2.63;1.10;;;22.60;99.90;;;;;;5040094;28;20204;-68
2023/09/24 12:52:32;;;;;;;5.03;1.10;;;23.00;99.90;;;;;;5047555;28;20230;-68
2023/09/24 12:54:58;;;;;;;2.57;1.20;;;22.90;99.90;;;;;;5048688;28;20666;-69